createdAt,value
2017-01-31T00:00:02.962Z,0
2017-01-31T00:05:03.056Z,0
2017-01-31T00:10:02.653Z,0
2017-01-31T00:15:02.479Z,0
2017-01-31T00:20:03.261Z,0
2017-01-31T00:25:03.106Z,0
2017-01-31T00:30:02.965Z,0
2017-01-31T00:35:02.479Z,0
2017-01-31T00:40:03.040Z,0
2017-01-31T00:45:02.512Z,0
2017-01-31T00:50:03.245Z,0
2017-01-31T00:55:02.887Z,0
2017-01-31T01:00:03.292Z,0
2017-01-31T01:05:03.346Z,0
2017-01-31T01:10:02.782Z,0
2017-01-31T01:15:10.399Z,0
2017-01-31T01:20:03.172Z,0
2017-01-31T01:25:02.947Z,0
2017-01-31T01:30:02.902Z,0
2017-01-31T01:35:03.264Z,0
2017-01-31T01:40:03.172Z,0
2017-01-31T01:45:02.523Z,0
2017-01-31T01:50:03.172Z,0
2017-01-31T01:55:02.831Z,0
2017-01-31T02:00:03.193Z,0
2017-01-31T02:05:03.003Z,0
2017-01-31T02:10:02.804Z,0
2017-01-31T02:15:03.105Z,0
2017-01-31T02:20:02.820Z,0
2017-01-31T02:25:03.418Z,0
2017-01-31T02:30:03.084Z,0
2017-01-31T02:35:03.010Z,0
2017-01-31T02:40:02.737Z,0
2017-01-31T02:45:03.263Z,0
2017-01-31T02:50:03.132Z,0
2017-01-31T02:55:02.562Z,0
2017-01-31T03:00:03.152Z,0
2017-01-31T03:05:02.903Z,0
2017-01-31T03:10:02.476Z,0
2017-01-31T03:15:03.152Z,0
2017-01-31T03:20:02.812Z,0
2017-01-31T03:25:03.334Z,0
2017-01-31T03:30:03.195Z,0
2017-01-31T03:35:02.928Z,0
2017-01-31T03:40:02.844Z,0
2017-01-31T03:45:02.482Z,0
2017-01-31T03:50:03.418Z,0
2017-01-31T03:55:02.919Z,0
2017-01-31T04:00:02.619Z,0
2017-01-31T04:05:02.504Z,0
2017-01-31T04:10:02.903Z,0
2017-01-31T04:15:02.601Z,0
2017-01-31T04:20:03.139Z,0
2017-01-31T04:25:02.571Z,0
2017-01-31T04:30:03.138Z,0
2017-01-31T04:35:02.889Z,0
2017-01-31T04:40:03.367Z,0
2017-01-31T04:45:02.939Z,0
2017-01-31T04:50:03.310Z,0
2017-01-31T04:55:02.801Z,0
2017-01-31T05:00:02.829Z,0
2017-01-31T05:05:03.273Z,0
2017-01-31T05:10:02.740Z,0
2017-01-31T05:15:02.524Z,0
2017-01-31T05:20:02.513Z,0
2017-01-31T05:25:03.053Z,0
2017-01-31T05:30:02.558Z,0
2017-01-31T05:35:03.307Z,0
2017-01-31T05:40:03.207Z,0
2017-01-31T05:45:02.582Z,0
2017-01-31T05:50:02.851Z,0
2017-01-31T05:55:02.533Z,0
2017-01-31T06:00:03.176Z,0
2017-01-31T06:05:03.131Z,0
2017-01-31T06:10:02.883Z,0
2017-01-31T06:15:03.553Z,0
2017-01-31T06:20:03.097Z,0
2017-01-31T06:25:02.545Z,0
2017-01-31T06:30:02.871Z,0
2017-01-31T06:35:02.789Z,0
2017-01-31T06:40:02.644Z,0
2017-01-31T06:45:03.313Z,1
2017-01-31T06:50:02.923Z,3
2017-01-31T06:55:03.420Z,8
2017-01-31T07:00:03.080Z,17
2017-01-31T07:05:03.396Z,33
2017-01-31T07:10:02.993Z,41
2017-01-31T07:15:02.474Z,47
2017-01-31T07:20:03.196Z,66
2017-01-31T07:25:02.524Z,92
2017-01-31T07:30:03.065Z,131
2017-01-31T07:35:02.664Z,165
2017-01-31T07:40:02.968Z,283
2017-01-31T07:45:03.444Z,314
2017-01-31T07:50:03.171Z,365
2017-01-31T07:55:02.715Z,365
2017-01-31T08:00:02.629Z,485
2017-01-31T08:05:02.499Z,550
2017-01-31T08:10:03.239Z,616
2017-01-31T08:15:02.919Z,721
2017-01-31T08:20:02.648Z,760
2017-01-31T08:25:03.335Z,775
2017-01-31T08:30:02.886Z,775
2017-01-31T08:35:02.489Z,775
2017-01-31T08:40:03.214Z,782
2017-01-31T08:45:02.817Z,885
2017-01-31T08:50:03.356Z,1000
2017-01-31T08:55:02.685Z,1000
2017-01-31T09:00:03.368Z,1000
2017-01-31T09:05:03.079Z,1000
2017-01-31T09:10:02.831Z,1000
2017-01-31T09:15:02.719Z,2000
2017-01-31T09:20:03.272Z,2000
2017-01-31T09:25:02.781Z,3000
2017-01-31T09:30:03.411Z,3000
2017-01-31T09:35:03.398Z,4000
2017-01-31T09:40:03.256Z,4000
2017-01-31T09:45:02.920Z,5000
2017-01-31T09:50:03.156Z,6000
2017-01-31T09:55:02.845Z,8000
2017-01-31T10:00:02.574Z,16000
2017-01-31T10:05:03.000Z,10000
2017-01-31T10:10:02.669Z,5000
2017-01-31T10:15:03.400Z,6000
2017-01-31T10:20:03.451Z,7000
2017-01-31T10:25:02.491Z,6000
2017-01-31T10:30:03.425Z,4000
2017-01-31T10:35:02.667Z,3000
2017-01-31T10:40:03.010Z,3000
2017-01-31T10:45:03.397Z,4000
2017-01-31T10:50:03.005Z,3000
2017-01-31T10:55:02.721Z,3000
2017-01-31T11:00:02.826Z,4000
2017-01-31T11:05:02.585Z,4000
2017-01-31T11:10:02.729Z,4000
2017-01-31T11:15:03.108Z,3000
2017-01-31T11:20:02.935Z,3000
2017-01-31T11:25:03.274Z,2000
2017-01-31T11:30:03.121Z,2000
2017-01-31T11:35:02.827Z,2000
2017-01-31T11:40:03.025Z,2000
2017-01-31T11:45:02.638Z,3000
2017-01-31T11:50:02.912Z,3000
2017-01-31T11:55:02.540Z,3000
2017-01-31T12:00:03.400Z,3000
2017-01-31T12:05:03.135Z,2000
2017-01-31T12:10:03.457Z,3000
2017-01-31T12:15:03.289Z,3000
2017-01-31T12:20:03.087Z,3000
2017-01-31T12:25:02.603Z,3000
2017-01-31T12:30:03.321Z,3000
2017-01-31T12:35:02.548Z,3000
2017-01-31T12:40:02.689Z,3000
2017-01-31T12:45:02.541Z,3000
2017-01-31T12:50:03.202Z,3000
2017-01-31T12:55:03.100Z,3000
2017-01-31T13:00:03.301Z,2000
2017-01-31T13:05:02.866Z,2000
2017-01-31T13:10:02.850Z,1000
2017-01-31T13:15:02.718Z,1000
2017-01-31T13:20:02.836Z,1000
2017-01-31T13:25:02.765Z,1000
2017-01-31T13:30:03.147Z,1000
2017-01-31T13:35:03.245Z,1000
2017-01-31T13:40:02.624Z,1000
2017-01-31T13:45:02.949Z,1000
2017-01-31T13:50:02.585Z,1000
2017-01-31T13:55:02.537Z,1000
2017-01-31T14:00:03.039Z,1000
2017-01-31T14:05:03.092Z,1000
2017-01-31T14:10:02.647Z,1000
2017-01-31T14:15:02.880Z,1000
2017-01-31T14:20:02.647Z,1000
2017-01-31T14:25:03.336Z,873
2017-01-31T14:30:02.951Z,761
2017-01-31T14:35:03.281Z,745
2017-01-31T14:40:03.103Z,699
2017-01-31T14:45:03.401Z,658
2017-01-31T14:50:03.376Z,611
2017-01-31T14:55:02.452Z,630
2017-01-31T15:00:02.781Z,647
2017-01-31T15:05:02.958Z,664
2017-01-31T15:10:02.792Z,718
2017-01-31T15:15:03.019Z,722
2017-01-31T15:20:02.513Z,754
2017-01-31T15:25:03.175Z,718
2017-01-31T15:30:03.257Z,721
2017-01-31T15:35:03.344Z,988
2017-01-31T15:40:02.943Z,2000
2017-01-31T15:45:02.642Z,1000
2017-01-31T15:50:02.884Z,1000
2017-01-31T15:55:02.992Z,855
2017-01-31T16:00:03.203Z,726
2017-01-31T16:05:03.293Z,601
2017-01-31T16:10:03.323Z,341
2017-01-31T16:15:03.416Z,284
2017-01-31T16:20:03.308Z,93
2017-01-31T16:25:03.205Z,68
2017-01-31T16:30:03.117Z,54
2017-01-31T16:35:02.553Z,42
2017-01-31T16:40:03.131Z,27
2017-01-31T16:45:03.068Z,13
2017-01-31T16:50:02.756Z,5
2017-01-31T16:55:03.226Z,2
2017-01-31T17:00:03.085Z,0
2017-01-31T17:05:02.460Z,0
2017-01-31T17:10:03.107Z,0
2017-01-31T17:15:03.034Z,0
2017-01-31T17:20:03.429Z,0
2017-01-31T17:25:03.131Z,0
2017-01-31T17:30:03.086Z,0
2017-01-31T17:35:03.302Z,0
2017-01-31T17:40:02.945Z,0
2017-01-31T17:45:02.798Z,0
2017-01-31T17:50:03.360Z,0
2017-01-31T17:55:02.716Z,0
2017-01-31T18:00:03.211Z,0
2017-01-31T18:05:02.993Z,0
2017-01-31T18:10:02.793Z,0
2017-01-31T18:15:03.222Z,0
2017-01-31T18:20:02.792Z,0
2017-01-31T18:25:03.086Z,0
2017-01-31T18:30:02.504Z,0
2017-01-31T18:35:03.111Z,0
2017-01-31T18:40:02.948Z,0
2017-01-31T18:45:02.634Z,0
2017-01-31T18:50:02.869Z,0
2017-01-31T18:55:03.295Z,0
2017-01-31T19:00:03.354Z,0
2017-01-31T19:05:03.284Z,0
2017-01-31T19:10:02.581Z,0
2017-01-31T19:15:03.326Z,0
2017-01-31T19:20:02.917Z,0
2017-01-31T19:35:03.624Z,0
2017-01-31T19:40:03.196Z,0
2017-01-31T19:45:02.494Z,0
2017-01-31T19:50:03.264Z,0
2017-01-31T19:55:02.664Z,0
2017-01-31T20:00:02.460Z,0
2017-01-31T20:05:02.721Z,0
2017-01-31T20:10:03.234Z,0
2017-01-31T20:15:02.875Z,0
2017-01-31T20:20:02.857Z,0
2017-01-31T20:25:03.317Z,0
2017-01-31T20:30:02.714Z,0
2017-01-31T20:35:03.212Z,0
2017-01-31T20:40:03.158Z,0
2017-01-31T20:45:02.692Z,0
2017-01-31T20:50:03.303Z,0
2017-01-31T20:55:03.122Z,0
2017-01-31T21:00:02.511Z,0
2017-01-31T21:05:02.830Z,0
2017-01-31T21:10:03.091Z,0
2017-01-31T21:15:02.548Z,0
2017-01-31T21:20:03.168Z,0
2017-01-31T21:25:03.023Z,0
2017-01-31T21:30:02.573Z,0
2017-01-31T21:35:02.972Z,0
2017-01-31T21:40:02.524Z,0
2017-01-31T21:45:03.270Z,0
2017-01-31T21:50:02.960Z,0
2017-01-31T21:55:02.674Z,0
2017-01-31T22:00:03.119Z,0
2017-01-31T22:05:02.695Z,0
2017-01-31T22:10:03.343Z,0
2017-01-31T22:15:03.251Z,0
2017-01-31T22:20:02.822Z,0
2017-01-31T22:25:03.125Z,0
2017-01-31T22:30:03.555Z,0
2017-01-31T22:35:02.479Z,0
2017-01-31T22:40:03.206Z,0
2017-01-31T22:45:02.712Z,0
2017-01-31T22:50:02.608Z,0
2017-01-31T22:55:02.678Z,0
2017-01-31T23:00:02.904Z,0
2017-01-31T23:05:02.652Z,0
2017-01-31T23:10:03.216Z,0
2017-01-31T23:15:02.690Z,0
2017-01-31T23:20:03.111Z,0
2017-01-31T23:25:02.854Z,0
2017-01-31T23:30:03.402Z,0
2017-01-31T23:35:03.098Z,0
2017-01-31T23:40:02.751Z,0
2017-01-31T23:45:02.820Z,0
2017-01-31T23:50:03.645Z,0
2017-01-31T23:55:03.128Z,0
